ΕΜΥ, Εθνική Μετεωρολογική Υπηρεσία - Δελτία Καιρού, Προγνώσεις

ΑΕΡΟΝΑΥΤΙΛΙΑ

GREEK AIRPORTS CODES

TAF LGSY 181700Z 1818/1903 03020G30KT 9999 FEW015 SCT020 TEMPO 1818/1903 5000 RA FEW015 BKN020 PROB40 1818/1903 3000 TSRA FEW015CB BKN020=

EUROPEAN AIRPORTS CODES

LFPO 181830Z 09006KT CAVOK 27/15 Q1017 NOSIG=